createdAt,value
2018-09-01T00:02:21.003Z,43.60
2018-09-01T00:04:51.454Z,44.37
2018-09-01T00:07:23.337Z,43.40
2018-09-01T00:09:54.181Z,44.13
2018-09-01T00:12:25.142Z,43.90
2018-09-01T00:14:55.462Z,44.20
2018-09-01T00:17:31.140Z,43.90
2018-09-01T00:20:03.300Z,44.23
2018-09-01T00:22:33.250Z,45.03
2018-09-01T00:25:03.247Z,44.60
2018-09-01T00:27:33.949Z,44.83
2018-09-01T00:30:04.172Z,44.60
2018-09-01T00:32:34.252Z,45.13
2018-09-01T00:35:04.522Z,44.70
2018-09-01T00:37:39.713Z,45.40
2018-09-01T00:40:09.829Z,44.13
2018-09-01T00:42:40.279Z,44.23
2018-09-01T00:45:10.325Z,45.13
2018-09-01T00:47:40.855Z,44.90
2018-09-01T00:50:11.093Z,44.47
2018-09-01T00:52:41.164Z,45.30
2018-09-01T00:55:17.147Z,45.00
2018-09-01T00:57:47.617Z,45.37
2018-09-01T01:00:17.720Z,45.80
2018-09-01T01:02:49.436Z,45.93
2018-09-01T01:05:19.639Z,46.27
2018-09-01T01:07:50.151Z,45.77
2018-09-01T01:10:20.562Z,44.10
2018-09-01T01:12:50.806Z,45.47
2018-09-01T01:15:21.021Z,46.00
2018-09-01T01:17:51.156Z,45.53
2018-09-01T01:20:21.681Z,46.37
2018-09-01T01:22:52.242Z,45.13
2018-09-01T01:25:22.651Z,44.97
2018-09-01T01:27:53.310Z,45.70
2018-09-01T01:30:23.663Z,45.90
2018-09-01T01:32:54.368Z,46.63
2018-09-01T01:35:25.543Z,46.10
2018-09-01T01:37:55.720Z,45.87
2018-09-01T01:40:25.904Z,45.97
2018-09-01T01:42:56.682Z,46.63
2018-09-01T01:45:29.459Z,47.47
2018-09-01T01:48:00.151Z,45.40
2018-09-01T01:50:30.428Z,46.53
2018-09-01T01:53:00.581Z,46.50
2018-09-01T01:55:30.991Z,46.73
2018-09-01T01:58:01.354Z,47.20
2018-09-01T02:00:31.570Z,47.57
2018-09-01T02:03:01.589Z,46.80
2018-09-01T02:05:35.999Z,47.50
2018-09-01T02:08:06.237Z,47.43
2018-09-01T02:10:36.287Z,48.13
2018-09-01T02:13:06.631Z,46.97
2018-09-01T02:15:36.837Z,47.43
2018-09-01T02:18:07.693Z,46.53
2018-09-01T02:20:38.077Z,47.17
2018-09-01T02:23:08.454Z,46.13
2018-09-01T02:25:39.303Z,46.80
2018-09-01T02:28:09.715Z,46.77
2018-09-01T02:30:40.117Z,46.50
2018-09-01T02:33:10.886Z,45.83
2018-09-01T02:35:42.218Z,46.50
2018-09-01T02:38:12.276Z,45.93
2018-09-01T02:40:42.463Z,46.60
2018-09-01T02:43:12.571Z,48.13
2018-09-01T02:45:43.012Z,48.40
2018-09-01T02:48:13.386Z,47.63
2018-09-01T02:50:43.701Z,47.27
2018-09-01T02:53:20.822Z,47.83
2018-09-01T02:55:52.101Z,48.53
2018-09-01T02:58:22.202Z,48.20
2018-09-01T03:00:57.392Z,47.50
2018-09-01T03:03:27.537Z,48.93
2018-09-01T03:05:57.975Z,46.87
2018-09-01T03:08:28.035Z,46.80
2018-09-01T03:10:58.307Z,48.03
2018-09-01T03:13:30.358Z,47.53
2018-09-01T03:16:00.644Z,47.67
2018-09-01T03:18:30.964Z,47.90
2018-09-01T03:21:01.256Z,49.10
2018-09-01T03:23:31.447Z,47.93
2018-09-01T03:26:01.946Z,47.97
2018-09-01T03:28:32.393Z,50.33
2018-09-01T03:31:02.642Z,48.83
2018-09-01T03:33:32.530Z,49.87
2018-09-01T03:36:03.543Z,49.57
2018-09-01T03:38:34.024Z,51.47
2018-09-01T03:41:04.335Z,50.90
2018-09-01T03:43:34.386Z,52.37
2018-09-01T03:46:04.389Z,51.30
2018-09-01T03:48:34.799Z,51.07
2018-09-01T03:51:04.911Z,52.73
2018-09-01T03:53:35.524Z,51.97
2018-09-01T03:56:05.564Z,54.27
2018-09-01T03:58:35.863Z,53.70
2018-09-01T04:01:06.090Z,54.40
2018-09-01T04:03:36.609Z,54.07
2018-09-01T04:06:07.187Z,54.67
2018-09-01T04:08:37.335Z,56.03
2018-09-01T04:11:07.885Z,54.47
2018-09-01T04:13:38.061Z,54.50
2018-09-01T04:16:08.235Z,55.47
2018-09-01T04:18:38.592Z,55.40
2018-09-01T04:21:08.788Z,56.67
2018-09-01T04:23:38.842Z,57.70
2018-09-01T04:26:09.046Z,56.37
2018-09-01T04:28:39.320Z,56.90
2018-09-01T04:31:09.421Z,59.10
2018-09-01T04:33:39.842Z,57.47
2018-09-01T04:36:09.964Z,57.87
2018-09-01T04:38:40.007Z,59.73
2018-09-01T04:41:10.461Z,57.00
2018-09-01T04:43:40.800Z,58.13
2018-09-01T04:46:10.980Z,55.57
2018-09-01T04:48:41.454Z,58.50
2018-09-01T04:51:11.570Z,58.87
2018-09-01T04:53:41.664Z,58.10
2018-09-01T04:56:12.399Z,58.17
2018-09-01T04:58:42.860Z,57.77
2018-09-01T05:01:12.965Z,58.00
2018-09-01T05:03:43.121Z,57.40
2018-09-01T05:06:14.109Z,57.20
2018-09-01T05:08:44.542Z,60.27
2018-09-01T05:11:15.074Z,58.83
2018-09-01T05:13:45.178Z,56.20
2018-09-01T05:16:15.435Z,57.07
2018-09-01T05:18:46.845Z,58.33
2018-09-01T05:21:17.120Z,57.70
2018-09-01T05:23:47.368Z,56.47
2018-09-01T05:26:17.497Z,57.30
2018-09-01T05:28:48.402Z,55.67
2018-09-01T05:31:18.580Z,55.20
2018-09-01T05:33:49.003Z,54.23
2018-09-01T05:36:19.442Z,55.67
2018-09-01T05:38:49.939Z,53.13
2018-09-01T05:41:20.158Z,55.20
2018-09-01T05:43:51.163Z,54.60
2018-09-01T05:46:21.123Z,54.70
2018-09-01T05:48:51.098Z,53.97
2018-09-01T05:51:21.544Z,54.23
2018-09-01T05:53:51.892Z,53.73
2018-09-01T05:56:22.136Z,55.37
2018-09-01T05:58:52.206Z,54.23
2018-09-01T06:01:22.650Z,54.10
2018-09-01T06:03:52.710Z,53.93
2018-09-01T06:06:22.968Z,54.03
2018-09-01T06:08:53.180Z,55.80
2018-09-01T06:11:23.478Z,53.90
2018-09-01T06:13:53.528Z,46.17
2018-09-01T06:16:23.605Z,44.90
2018-09-01T06:18:53.809Z,46.00
2018-09-01T06:21:24.260Z,45.27
2018-09-01T06:23:54.373Z,45.33
2018-09-01T06:26:24.560Z,46.37
2018-09-01T06:29:16.996Z,46.93
2018-09-01T06:31:57.889Z,47.23
2018-09-01T06:34:28.193Z,48.07
2018-09-01T06:36:58.517Z,48.60
2018-09-01T06:39:28.866Z,54.33
2018-09-01T06:41:58.918Z,53.40
2018-09-01T06:44:30.231Z,54.97
2018-09-01T06:47:00.420Z,54.50
2018-09-01T06:49:31.402Z,50.57
2018-09-01T06:52:01.770Z,54.70
2018-09-01T06:54:32.255Z,56.67
2018-09-01T06:57:02.780Z,54.30
2018-09-01T06:59:32.873Z,54.17
2018-09-01T07:02:02.952Z,54.07
2018-09-01T07:04:33.272Z,53.70
2018-09-01T07:07:03.436Z,53.30
2018-09-01T07:09:33.740Z,52.20
2018-09-01T07:12:03.790Z,52.70
2018-09-01T07:14:34.244Z,52.93
2018-09-01T07:17:04.902Z,52.27
2018-09-01T07:19:34.978Z,53.70
2018-09-01T07:22:05.154Z,50.07
2018-09-01T07:24:35.254Z,51.23
2018-09-01T07:27:06.414Z,47.63
2018-09-01T07:29:36.606Z,47.20
2018-09-01T07:32:07.013Z,45.87
2018-09-01T07:34:37.055Z,45.40
2018-09-01T07:37:07.388Z,44.53
2018-09-01T07:39:37.450Z,46.53
2018-09-01T07:42:08.642Z,48.93
2018-09-01T07:44:39.547Z,46.60
2018-09-01T07:47:09.660Z,48.23
2018-09-01T07:49:40.126Z,45.87
2018-09-01T07:52:10.429Z,47.13
2018-09-01T07:54:40.925Z,45.47
2018-09-01T07:57:11.200Z,45.23
2018-09-01T07:59:41.263Z,45.07
2018-09-01T08:02:12.291Z,46.10
2018-09-01T08:04:42.527Z,45.10
2018-09-01T08:07:13.351Z,44.93
2018-09-01T08:09:45.549Z,45.37
2018-09-01T08:12:15.900Z,48.67
2018-09-01T08:14:46.139Z,46.43
2018-09-01T08:17:17.065Z,46.43
2018-09-01T08:19:47.353Z,45.27
2018-09-01T08:22:18.517Z,47.17
2018-09-01T08:24:48.764Z,46.03
2018-09-01T08:27:19.317Z,46.97
2018-09-01T08:29:49.320Z,46.03
2018-09-01T08:32:19.598Z,46.40
2018-09-01T08:34:50.033Z,48.03
2018-09-01T08:37:20.343Z,46.60
2018-09-01T08:39:50.491Z,48.53
2018-09-01T08:42:20.641Z,47.33
2018-09-01T08:44:50.889Z,46.57
2018-09-01T08:47:21.222Z,48.23
2018-09-01T08:49:52.184Z,47.00
2018-09-01T08:52:22.120Z,47.70
2018-09-01T08:54:52.374Z,48.27
2018-09-01T08:57:23.769Z,48.80
2018-09-01T08:59:54.131Z,49.97
2018-09-01T09:02:24.411Z,49.13
2018-09-01T09:04:54.775Z,49.77
2018-09-01T09:07:25.125Z,47.03
2018-09-01T09:10:01.928Z,47.33
2018-09-01T09:12:32.936Z,47.50
2018-09-01T09:15:04.229Z,47.07
2018-09-01T09:17:34.222Z,47.37
2018-09-01T09:20:05.209Z,47.43
2018-09-01T09:22:35.481Z,45.50
2018-09-01T09:25:05.790Z,48.37
2018-09-01T09:27:35.999Z,46.60
2018-09-01T09:30:07.015Z,47.03
2018-09-01T09:32:37.055Z,47.03
2018-09-01T09:35:07.103Z,47.00
2018-09-01T09:37:37.331Z,46.47
2018-09-01T09:40:08.488Z,45.77
2018-09-01T09:42:38.517Z,45.93
2018-09-01T09:45:08.680Z,46.27
2018-09-01T09:47:38.800Z,46.00
2018-09-01T09:50:09.159Z,45.00
2018-09-01T09:52:39.100Z,45.70
2018-09-01T09:55:10.172Z,46.53
2018-09-01T09:57:41.111Z,46.33
2018-09-01T10:00:12.470Z,46.40
2018-09-01T10:02:43.034Z,46.40
2018-09-01T10:05:13.805Z,46.27
2018-09-01T10:07:43.838Z,45.63
2018-09-01T10:10:14.511Z,45.90
2018-09-01T10:12:45.693Z,46.00
2018-09-01T10:15:15.843Z,45.43
2018-09-01T10:17:45.956Z,46.00
2018-09-01T10:20:16.106Z,46.47
2018-09-01T10:22:46.211Z,46.00
2018-09-01T10:25:16.412Z,45.63
2018-09-01T10:27:47.203Z,45.53
2018-09-01T10:30:17.391Z,45.67
2018-09-01T10:32:48.099Z,46.63
2018-09-01T10:35:18.247Z,45.60
2018-09-01T10:37:48.374Z,46.63
2018-09-01T10:40:19.107Z,46.60
2018-09-01T10:42:49.181Z,45.73
2018-09-01T10:45:19.427Z,46.10
2018-09-01T10:47:50.646Z,45.73
2018-09-01T10:50:21.301Z,46.50
2018-09-01T10:52:52.403Z,45.87
2018-09-01T10:55:22.985Z,46.13
2018-09-01T10:57:53.056Z,45.93
2018-09-01T11:00:23.186Z,46.10
2018-09-01T11:02:55.052Z,45.37
2018-09-01T11:05:26.211Z,45.50
2018-09-01T11:07:57.016Z,45.53
2018-09-01T11:10:28.790Z,44.87
2018-09-01T11:12:59.799Z,44.87
2018-09-01T11:15:31.107Z,45.20
2018-09-01T11:18:02.018Z,45.17
2018-09-01T11:20:32.287Z,46.83
2018-09-01T11:23:02.385Z,46.50
2018-09-01T11:25:32.661Z,47.47
2018-09-01T11:28:02.787Z,46.13
2018-09-01T11:30:33.158Z,46.40
2018-09-01T11:33:03.496Z,46.23
2018-09-01T11:35:33.943Z,46.90
2018-09-01T11:38:03.913Z,46.70
2018-09-01T11:40:34.217Z,46.53
2018-09-01T11:43:04.588Z,46.33
2018-09-01T11:45:34.595Z,46.40
2018-09-01T11:48:04.701Z,46.93
2018-09-01T11:50:35.375Z,47.73
2018-09-01T11:53:06.516Z,46.40
2018-09-01T11:55:37.279Z,47.23
2018-09-01T11:58:07.627Z,46.90
2018-09-01T12:00:38.034Z,48.00
2018-09-01T12:03:08.667Z,46.17
2018-09-01T12:05:39.236Z,46.73
2018-09-01T12:08:09.715Z,46.80
2018-09-01T12:10:40.009Z,45.73
2018-09-01T12:13:10.683Z,47.10
2018-09-01T12:15:40.869Z,46.40
2018-09-01T12:18:11.883Z,47.17
2018-09-01T12:20:42.476Z,47.07
2018-09-01T12:23:12.485Z,46.07
2018-09-01T12:25:42.735Z,47.60
2018-09-01T12:28:13.326Z,46.73
2018-09-01T12:30:43.390Z,46.90
2018-09-01T12:33:14.170Z,46.90
2018-09-01T12:35:44.491Z,46.97
2018-09-01T12:38:15.132Z,46.17
2018-09-01T12:40:45.351Z,46.60
2018-09-01T12:43:15.186Z,47.27
2018-09-01T12:45:45.488Z,47.20
2018-09-01T12:48:15.604Z,47.50
2018-09-01T12:50:45.820Z,46.83
2018-09-01T12:53:16.156Z,47.07
2018-09-01T12:55:46.295Z,47.87
2018-09-01T12:58:16.613Z,48.17
2018-09-01T13:00:47.465Z,48.27
2018-09-01T13:03:17.558Z,47.30
2018-09-01T13:05:48.234Z,47.17
2018-09-01T13:08:18.374Z,47.10
2018-09-01T13:10:48.515Z,47.30
2018-09-01T13:13:18.827Z,47.67
2018-09-01T13:15:48.967Z,47.33
2018-09-01T13:18:19.729Z,46.60
2018-09-01T13:20:49.883Z,46.57
2018-09-01T13:23:20.896Z,46.73
2018-09-01T13:25:51.006Z,47.20
2018-09-01T13:28:22.382Z,47.27
2018-09-01T13:30:52.637Z,47.30
2018-09-01T13:33:22.831Z,47.13
2018-09-01T13:35:53.168Z,47.33
2018-09-01T13:38:23.255Z,46.50
2018-09-01T13:40:53.348Z,46.90
2018-09-01T13:43:23.515Z,45.90
2018-09-01T13:45:53.537Z,46.80
2018-09-01T13:48:23.783Z,47.27
2018-09-01T13:50:53.991Z,47.40
2018-09-01T13:53:27.613Z,47.73
2018-09-01T13:55:58.604Z,46.47
2018-09-01T13:58:28.884Z,46.60
2018-09-01T14:00:59.410Z,46.73
2018-09-01T14:03:29.699Z,46.80
2018-09-01T14:06:00.079Z,47.67
2018-09-01T14:08:30.108Z,47.50
2018-09-01T14:11:00.552Z,46.93
2018-09-01T14:13:30.796Z,47.17
2018-09-01T14:16:00.756Z,46.93
2018-09-01T14:18:31.552Z,46.23
2018-09-01T14:21:01.846Z,47.30
2018-09-01T14:23:31.697Z,47.93
2018-09-01T14:26:02.051Z,46.97
2018-09-01T14:28:32.910Z,46.47
2018-09-01T14:31:03.092Z,46.03
2018-09-01T14:33:33.979Z,47.27
2018-09-01T14:36:04.354Z,47.87
2018-09-01T14:38:34.798Z,47.17
2018-09-01T14:41:04.929Z,48.23
2018-09-01T14:43:35.307Z,46.90
2018-09-01T14:46:05.393Z,47.27
2018-09-01T14:48:36.079Z,47.37
2018-09-01T14:51:06.420Z,47.93
2018-09-01T14:53:37.132Z,47.60
2018-09-01T14:56:07.894Z,47.40
2018-09-01T14:58:37.866Z,48.13
2018-09-01T15:01:07.736Z,53.60
2018-09-01T15:03:38.031Z,47.83
2018-09-01T15:06:08.043Z,48.20
2018-09-01T15:08:38.191Z,48.98
2018-09-01T15:11:08.163Z,47.80
2018-09-01T15:13:38.417Z,48.23
2018-09-01T15:16:08.991Z,47.40
2018-09-01T15:18:39.789Z,47.95
2018-09-01T15:21:09.971Z,47.08
2018-09-01T15:23:40.730Z,47.45
2018-09-01T15:26:11.260Z,48.68
2018-09-01T15:28:42.498Z,47.83
2018-09-01T15:31:12.466Z,48.75
2018-09-01T15:33:42.513Z,48.42
2018-09-01T15:36:12.446Z,48.23
2018-09-01T15:38:42.627Z,48.95
2018-09-01T15:41:12.690Z,48.78
2018-09-01T15:43:43.237Z,48.45
2018-09-01T15:46:13.156Z,50.15
2018-09-01T15:48:43.360Z,48.75
2018-09-01T15:51:13.913Z,47.88
2018-09-01T15:53:44.260Z,48.68
2018-09-01T15:56:15.053Z,49.03
2018-09-01T15:58:45.100Z,48.75
2018-09-01T16:01:15.725Z,48.95
2018-09-01T16:03:46.006Z,49.05
2018-09-01T16:06:16.056Z,48.42
2018-09-01T16:08:46.851Z,48.33
2018-09-01T16:11:17.186Z,48.60
2018-09-01T16:13:47.326Z,49.15
2018-09-01T16:16:17.701Z,49.60
2018-09-01T16:18:47.863Z,48.70
2018-09-01T16:21:18.057Z,48.55
2018-09-01T16:23:48.328Z,48.92
2018-09-01T16:26:18.590Z,48.15
2018-09-01T16:28:48.776Z,49.88
2018-09-01T16:31:18.955Z,48.68
2018-09-01T16:33:49.204Z,49.73
2018-09-01T16:36:19.466Z,48.35
2018-09-01T16:38:49.721Z,48.92
2018-09-01T16:41:19.915Z,49.18
2018-09-01T16:43:50.120Z,50.38
2018-09-01T16:46:20.342Z,49.77
2018-09-01T16:48:50.391Z,49.83
2018-09-01T16:51:20.591Z,50.30
2018-09-01T16:53:50.823Z,49.60
2018-09-01T16:56:20.923Z,49.50
2018-09-01T16:58:51.066Z,49.03
2018-09-01T17:01:21.366Z,49.70
2018-09-01T17:03:51.556Z,49.53
2018-09-01T17:06:21.706Z,49.37
2018-09-01T17:08:51.913Z,49.20
2018-09-01T17:11:21.860Z,49.00
2018-09-01T17:13:52.025Z,49.53
2018-09-01T17:16:22.097Z,48.30
2018-09-01T17:18:52.297Z,48.43
2018-09-01T17:21:22.516Z,49.10
2018-09-01T17:23:52.883Z,49.30
2018-09-01T17:26:23.189Z,49.30
2018-09-01T17:31:38.342Z,48.80
2018-09-01T17:34:11.785Z,48.63
2018-09-01T17:36:42.101Z,48.90
2018-09-01T17:39:13.354Z,48.57
2018-09-01T17:41:44.153Z,47.50
2018-09-01T17:44:14.644Z,47.83
2018-09-01T17:46:45.182Z,47.77
2018-09-01T17:49:15.554Z,46.80
2018-09-01T17:51:46.379Z,48.77
2018-09-01T17:54:16.590Z,48.30
2018-09-01T17:56:46.820Z,48.43
2018-09-01T17:59:17.056Z,49.17
2018-09-01T18:01:47.520Z,48.90
2018-09-01T18:04:17.731Z,49.03
2018-09-01T18:06:48.020Z,48.57
2018-09-01T18:09:18.593Z,49.53
2018-09-01T18:11:48.955Z,48.47
2018-09-01T18:14:20.082Z,47.93
2018-09-01T18:16:51.231Z,47.90
2018-09-01T18:19:21.394Z,48.87
2018-09-01T18:21:51.782Z,48.33
2018-09-01T18:24:22.061Z,47.57
2018-09-01T18:26:53.097Z,47.93
2018-09-01T18:29:29.899Z,48.30
2018-09-01T18:31:59.980Z,47.53
2018-09-01T18:34:32.460Z,47.33
